Time;durP1;ratioP1;P1;durP2;ratioP2;P2;SDS_P1;SDS_P2;PMS_P1;PMS_P2;Temp;Humidity;BMP_temperature;BMP_pressure;BME280_temperature;BME280_humidity;BME280_pressure;Samples;Min_cycle;Max_cycle;Signal;HPM_P1;HPM_P2
2022/12/02 05:31:49;;;;;;;21.90;9.93;;;3.70;79.50;;;;;;5265292;23;19972;-79
2022/12/02 05:34:15;;;;;;;28.70;11.50;;;3.60;79.70;;;;;;4928041;29;20036;-83
2022/12/02 05:36:41;;;;;;;24.35;12.00;;;3.60;79.70;;;;;;4920917;29;20123;-86
2022/12/02 05:39:07;;;;;;;29.05;11.18;;;3.60;79.90;;;;;;4919322;29;20627;-84
2022/12/02 05:41:32;;;;;;;21.30;11.13;;;3.50;79.70;;;;;;4920310;29;20028;-83
2022/12/02 05:44:17;;;;;;;20.88;9.65;;;3.50;79.80;;;;;;4922394;29;20143;-76
2022/12/02 05:46:43;;;;;;;22.58;11.25;;;3.50;79.90;;;;;;4922191;29;20118;-78
2022/12/02 05:49:19;;;;;;;22.80;9.30;;;3.50;79.80;;;;;;4927989;29;20111;-77
2022/12/02 05:51:59;;;;;;;19.55;10.20;;;3.50;79.80;;;;;;4903570;29;20024;-79
2022/12/02 05:54:26;;;;;;;26.08;11.70;;;3.60;79.50;;;;;;4927798;29;20031;-78
2022/12/02 05:56:53;;;;;;;26.17;12.43;;;3.60;79.20;;;;;;4938884;29;20736;-76
2022/12/02 05:59:20;;;;;;;28.90;14.55;;;3.60;79.10;;;;;;4919035;29;20131;-74
2022/12/02 06:01:52;;;;;;;23.70;12.68;;;3.60;78.80;;;;;;4915510;29;20051;-75
2022/12/02 06:04:21;;;;;;;25.58;10.88;;;3.50;78.60;;;;;;4937814;29;20062;-75
2022/12/02 06:06:47;;;;;;;24.20;11.63;;;3.50;78.70;;;;;;4933816;29;20028;-74
2022/12/02 06:09:18;;;;;;;28.50;16.20;;;3.50;78.70;;;;;;4921159;29;20030;-75
2022/12/02 06:11:46;;;;;;;30.73;17.27;;;3.50;78.60;;;;;;4926954;29;20031;-74
2022/12/02 06:14:21;;;;;;;48.28;24.17;;;3.40;78.50;;;;;;4920331;29;20028;-78
2022/12/02 06:16:52;;;;;;;51.78;28.63;;;3.40;78.70;;;;;;4904086;29;20064;-79
2022/12/02 06:19:22;;;;;;;39.45;21.42;;;3.40;78.60;;;;;;4939485;29;20395;-80
2022/12/02 06:21:49;;;;;;;35.08;18.05;;;3.40;78.50;;;;;;4939783;29;20393;-80
2022/12/02 06:24:14;;;;;;;39.67;18.55;;;3.30;78.50;;;;;;4907604;29;20035;-80
2022/12/02 06:26:43;;;;;;;26.27;15.93;;;3.40;78.40;;;;;;4920725;29;20020;-79
2022/12/02 06:29:14;;;;;;;31.35;15.82;;;3.30;78.40;;;;;;4930155;29;20035;-76
2022/12/02 06:31:42;;;;;;;28.70;13.88;;;3.30;78.20;;;;;;4939044;29;20054;-78
2022/12/02 06:34:19;;;;;;;23.90;13.05;;;3.30;78.40;;;;;;4913372;29;20035;-79
2022/12/02 06:36:45;;;;;;;17.85;10.27;;;3.30;78.50;;;;;;4933641;29;20515;-79
2022/12/02 06:39:21;;;;;;;20.33;9.77;;;3.40;78.30;;;;;;4927672;29;20035;-79
2022/12/02 06:41:48;;;;;;;21.85;10.77;;;3.40;78.20;;;;;;4931626;29;20111;-79
2022/12/02 06:47:32;;;;;;;23.98;10.30;;;3.40;78.10;;;;;;4931715;29;20039;-79
2022/12/02 06:50:24;;;;;;;21.83;11.40;;;3.30;78.00;;;;;;4930197;29;20047;-79
2022/12/02 06:52:50;;;;;;;17.98;10.88;;;3.30;77.90;;;;;;4911186;29;20031;-79
2022/12/02 06:55:31;;;;;;;20.85;10.52;;;3.20;77.80;;;;;;4928191;29;20119;-80
2022/12/02 06:58:20;;;;;;;21.52;9.95;;;3.20;77.90;;;;;;4930563;29;20035;-79
2022/12/02 07:00:46;;;;;;;18.02;9.63;;;3.20;78.00;;;;;;4924323;29;20039;-79
2022/12/02 07:03:29;;;;;;;18.38;9.65;;;3.20;78.00;;;;;;4927875;29;20023;-79
2022/12/02 07:06:08;;;;;;;18.85;9.48;;;3.20;78.20;;;;;;4931342;29;20028;-79
2022/12/02 07:08:34;;;;;;;18.23;10.25;;;3.20;78.10;;;;;;4928838;29;20031;-79
2022/12/02 07:10:59;;;;;;;26.23;12.32;;;3.10;78.10;;;;;;4928197;29;20027;-79
2022/12/02 07:13:27;;;;;;;22.55;10.45;;;3.10;78.30;;;;;;4925887;29;20103;-79
2022/12/02 07:15:53;;;;;;;26.48;11.85;;;3.10;78.50;;;;;;4937753;29;20039;-87
2022/12/02 07:18:20;;;;;;;28.55;12.50;;;3.10;78.50;;;;;;4931126;29;20092;-80
2022/12/02 07:20:47;;;;;;;25.70;11.13;;;3.10;78.40;;;;;;4934841;29;20118;-78
2022/12/02 07:23:23;;;;;;;33.47;14.10;;;3.10;78.40;;;;;;4930637;29;20024;-78
2022/12/02 07:25:56;;;;;;;31.17;11.77;;;3.10;78.30;;;;;;4919798;29;20059;-79
2022/12/02 07:28:36;;;;;;;28.65;11.55;;;3.10;78.50;;;;;;4919376;29;20016;-78
2022/12/02 07:31:21;;;;;;;24.65;12.18;;;3.20;78.40;;;;;;4919278;29;20063;-78
2022/12/02 07:33:47;;;;;;;21.75;11.57;;;3.20;78.30;;;;;;4925993;29;20036;-78
2022/12/02 07:36:13;;;;;;;21.58;11.18;;;3.20;78.30;;;;;;4938351;29;20039;-78
2022/12/02 07:38:39;;;;;;;21.77;11.40;;;3.20;78.20;;;;;;4938314;29;20035;-78
2022/12/02 07:41:05;;;;;;;24.92;10.82;;;3.20;78.30;;;;;;4937895;29;20040;-78
2022/12/02 07:43:31;;;;;;;30.02;11.70;;;3.20;78.10;;;;;;4921094;29;20028;-79
2022/12/02 07:46:04;;;;;;;20.70;9.98;;;3.20;78.20;;;;;;4938200;29;20531;-78
2022/12/02 07:48:30;;;;;;;24.85;11.52;;;3.20;78.20;;;;;;4938042;29;20028;-79
2022/12/02 07:50:56;;;;;;;14.95;10.50;;;3.20;78.20;;;;;;4951810;29;20042;-79
2022/12/02 07:53:22;;;;;;;20.23;11.50;;;3.30;78.10;;;;;;4955808;29;20023;-79
2022/12/02 07:55:47;;;;;;;22.98;11.32;;;3.20;78.10;;;;;;4939256;29;20039;-78
2022/12/02 07:58:13;;;;;;;21.08;13.10;;;3.30;78.10;;;;;;4887374;29;20040;-78
2022/12/02 08:00:38;;;;;;;28.05;11.20;;;3.30;78.20;;;;;;4918988;29;20070;-78
2022/12/02 08:03:04;;;;;;;26.40;11.88;;;3.30;78.20;;;;;;4920938;29;20070;-78
2022/12/02 08:05:30;;;;;;;32.50;12.95;;;3.30;78.30;;;;;;4938694;29;20035;-79
2022/12/02 08:07:55;;;;;;;24.35;11.85;;;3.30;78.30;;;;;;4912944;29;20032;-78
2022/12/02 08:10:21;;;;;;;19.25;9.30;;;3.20;78.40;;;;;;4924726;29;20032;-79
2022/12/02 08:12:47;;;;;;;28.88;11.73;;;3.30;78.40;;;;;;4941252;29;20039;-79
2022/12/02 08:15:14;;;;;;;23.35;11.82;;;3.30;78.40;;;;;;4941709;29;20164;-78
2022/12/02 08:17:40;;;;;;;19.60;10.15;;;3.30;78.30;;;;;;4941703;29;20020;-78
2022/12/02 08:20:08;;;;;;;23.95;10.85;;;3.40;78.40;;;;;;4941566;29;20079;-78
2022/12/02 08:22:34;;;;;;;25.90;11.20;;;3.40;78.50;;;;;;4941133;29;20127;-79
2022/12/02 08:25:00;;;;;;;18.27;10.73;;;3.40;78.50;;;;;;4940867;29;20023;-78
2022/12/02 08:27:25;;;;;;;27.15;11.93;;;3.40;78.50;;;;;;4941519;29;20024;-79
2022/12/02 08:29:51;;;;;;;23.92;13.25;;;3.40;78.60;;;;;;4940870;29;20053;-78
2022/12/02 08:32:18;;;;;;;21.63;11.85;;;3.40;78.70;;;;;;4940045;29;20439;-79
2022/12/02 08:34:44;;;;;;;20.20;10.60;;;3.40;78.80;;;;;;4940250;29;20028;-79
2022/12/02 08:37:10;;;;;;;25.77;12.93;;;3.40;78.80;;;;;;4943324;29;20032;-78
2022/12/02 08:39:36;;;;;;;21.67;11.27;;;3.30;78.80;;;;;;4922128;29;20032;-78
2022/12/02 08:42:02;;;;;;;26.40;11.43;;;3.30;78.80;;;;;;4922139;29;20043;-78
2022/12/02 08:44:27;;;;;;;23.58;11.77;;;3.30;78.90;;;;;;4920705;29;20036;-79
2022/12/02 08:46:53;;;;;;;24.10;12.27;;;3.30;79.00;;;;;;4922135;29;20029;-79
2022/12/02 08:49:19;;;;;;;28.15;12.25;;;3.30;79.10;;;;;;4921997;29;20024;-79
2022/12/02 08:51:44;;;;;;;25.02;12.20;;;3.30;79.20;;;;;;4922068;29;20032;-78
2022/12/02 08:54:10;;;;;;;20.83;12.60;;;3.30;79.20;;;;;;4921372;29;20075;-78
2022/12/02 08:56:36;;;;;;;27.48;13.20;;;3.30;79.20;;;;;;4940821;29;20060;-78
2022/12/02 08:59:02;;;;;;;21.42;11.93;;;3.40;79.30;;;;;;4940804;29;20031;-79
2022/12/02 09:01:28;;;;;;;31.27;14.77;;;3.50;79.30;;;;;;4935943;29;20024;-79
2022/12/02 09:03:53;;;;;;;31.33;13.75;;;3.60;79.20;;;;;;4928883;29;20484;-79
2022/12/02 09:06:19;;;;;;;24.23;11.60;;;3.50;79.20;;;;;;4939295;29;20038;-79
2022/12/02 09:08:44;;;;;;;24.50;11.65;;;3.50;79.70;;;;;;4923326;29;20034;-79
2022/12/02 09:11:10;;;;;;;20.52;11.32;;;3.60;79.60;;;;;;4917177;29;20036;-79
2022/12/02 09:13:36;;;;;;;23.05;13.35;;;3.70;79.60;;;;;;4935462;29;20099;-80
2022/12/02 09:16:01;;;;;;;25.40;11.18;;;3.70;79.60;;;;;;4939326;29;20035;-79
2022/12/02 09:18:27;;;;;;;28.83;13.88;;;3.80;79.50;;;;;;4918478;29;20103;-79
2022/12/02 09:20:53;;;;;;;27.45;14.05;;;3.80;79.40;;;;;;4921528;29;20039;-79
2022/12/02 09:23:18;;;;;;;25.98;12.50;;;3.80;79.60;;;;;;4928714;29;20107;-79
2022/12/02 09:25:44;;;;;;;25.95;14.20;;;3.80;79.60;;;;;;4939980;29;20032;-79
2022/12/02 09:28:10;;;;;;;29.08;14.93;;;3.80;79.70;;;;;;4940411;29;20387;-80
2022/12/02 09:30:35;;;;;;;29.55;13.43;;;3.80;79.80;;;;;;4939665;29;20055;-79
2022/12/02 09:33:01;;;;;;;24.58;12.50;;;3.80;79.90;;;;;;4940277;29;20104;-79
2022/12/02 09:35:27;;;;;;;33.80;13.63;;;3.90;79.90;;;;;;4921960;29;20060;-79
2022/12/02 09:37:52;;;;;;;24.80;12.23;;;3.90;79.90;;;;;;4921223;29;20036;-79
2022/12/02 09:40:18;;;;;;;35.00;12.95;;;4.00;79.90;;;;;;4903894;29;20020;-79
2022/12/02 09:42:44;;;;;;;27.70;12.48;;;4.00;80.00;;;;;;4905107;29;20039;-79
2022/12/02 09:45:11;;;;;;;26.83;14.82;;;4.10;80.20;;;;;;4939899;29;20024;-79
2022/12/02 09:47:37;;;;;;;25.25;13.15;;;4.20;80.20;;;;;;4939511;29;20495;-79
2022/12/02 09:50:04;;;;;;;30.63;15.15;;;4.30;80.20;;;;;;4938551;29;20050;-79
2022/12/02 09:52:30;;;;;;;20.70;11.93;;;4.40;79.90;;;;;;4939440;29;20020;-79
2022/12/02 09:54:57;;;;;;;27.90;14.23;;;4.30;80.10;;;;;;4939796;29;20042;-79
2022/12/02 09:57:29;;;;;;;20.73;12.93;;;4.40;80.20;;;;;;4936801;29;20024;-79
2022/12/02 10:00:00;;;;;;;25.45;13.75;;;4.40;80.30;;;;;;4918834;29;20084;-79
2022/12/02 10:02:29;;;;;;;22.25;10.82;;;4.50;80.20;;;;;;4920692;29;20400;-79
2022/12/02 10:04:59;;;;;;;26.25;11.93;;;4.60;80.20;;;;;;4935653;29;20028;-79
2022/12/02 10:07:25;;;;;;;;;;;4.60;80.20;;;;;;4925215;29;20548;-80
2022/12/02 10:09:50;;;;;;;22.15;12.15;;;4.70;80.10;;;;;;4920481;29;19965;-80
2022/12/02 10:12:16;;;;;;;24.45;11.73;;;4.70;80.10;;;;;;4937812;29;20035;-79
2022/12/02 10:14:47;;;;;;;32.70;14.52;;;4.70;80.30;;;;;;4939062;29;20043;-79
2022/12/02 10:17:17;;;;;;;28.42;14.43;;;4.70;80.30;;;;;;4922483;29;20043;-80
2022/12/02 10:19:44;;;;;;;26.30;14.52;;;4.80;80.40;;;;;;4939483;29;20041;-79
2022/12/02 10:22:15;;;;;;;33.08;14.40;;;4.80;80.40;;;;;;4922100;29;20027;-80
2022/12/02 10:24:41;;;;;;;33.55;15.05;;;4.90;80.40;;;;;;4908637;29;20036;-80
2022/12/02 10:27:07;;;;;;;28.85;14.32;;;5.00;80.40;;;;;;4903174;29;20253;-80
2022/12/02 10:29:33;;;;;;;29.08;14.95;;;5.10;80.30;;;;;;4920217;29;20080;-80
2022/12/02 10:32:01;;;;;;;30.42;14.50;;;5.00;80.30;;;;;;4903504;29;20060;-80
2022/12/02 10:34:29;;;;;;;26.15;14.63;;;5.20;80.10;;;;;;4931562;29;20104;-80
2022/12/02 10:36:55;;;;;;;27.60;12.95;;;5.20;80.10;;;;;;4932754;29;20071;-80
2022/12/02 10:39:21;;;;;;;32.63;15.18;;;5.20;80.00;;;;;;4924266;29;20070;-80
2022/12/02 10:42:07;;;;;;;33.65;15.65;;;5.30;80.10;;;;;;4938499;29;20032;-80
2022/12/02 10:44:41;;;;;;;34.45;15.13;;;5.30;80.10;;;;;;4939055;29;20027;-80
2022/12/02 10:47:24;;;;;;;29.65;14.50;;;5.20;80.30;;;;;;4921789;29;20523;-80
2022/12/02 10:49:53;;;;;;;34.75;14.45;;;5.20;80.30;;;;;;4908815;29;20032;-80
2022/12/02 10:52:43;;;;;;;30.38;14.23;;;5.20;80.40;;;;;;4902717;29;20024;-80
2022/12/02 10:55:10;;;;;;;31.88;15.52;;;5.20;80.40;;;;;;4937978;29;20059;-80
2022/12/02 10:57:37;;;;;;;28.10;13.65;;;5.20;80.50;;;;;;4938880;29;20028;-79
2022/12/02 11:00:19;;;;;;;33.97;15.45;;;5.20;80.50;;;;;;4921619;29;20038;-80
2022/12/02 11:03:04;;;;;;;33.88;17.05;;;5.20;80.50;;;;;;4920987;29;20023;-80
2022/12/02 11:05:34;;;;;;;35.92;15.98;;;5.30;80.60;;;;;;4938872;29;20032;-78
2022/12/02 11:08:02;;;;;;;44.80;15.23;;;5.40;80.60;;;;;;4942728;29;20028;-80
2022/12/02 11:10:38;;;;;;;35.78;16.30;;;5.50;80.60;;;;;;4928768;29;20491;-80
2022/12/02 11:13:12;;;;;;;35.50;17.65;;;5.50;80.60;;;;;;4917656;29;20087;-86
2022/12/02 11:15:45;;;;;;;34.20;16.17;;;5.70;80.40;;;;;;4925733;29;20036;-84
2022/12/02 11:18:29;;;;;;;30.67;15.65;;;5.70;80.30;;;;;;4923690;29;20028;-80
2022/12/02 11:21:00;;;;;;;35.35;19.52;;;5.90;80.10;;;;;;4935128;29;20030;-85
2022/12/02 11:23:30;;;;;;;26.92;13.95;;;6.00;79.90;;;;;;4916988;29;20027;-82
2022/12/02 11:25:57;;;;;;;30.38;14.88;;;6.10;79.60;;;;;;4927131;29;20024;-84
2022/12/02 11:28:29;;;;;;;43.60;16.17;;;6.20;79.50;;;;;;4912849;29;20146;-85
2022/12/02 11:31:21;;;;;;;34.05;14.63;;;6.30;79.00;;;;;;4931813;29;20532;-82
2022/12/02 11:33:54;;;;;;;32.75;15.23;;;6.40;79.00;;;;;;4906430;29;20767;-80
2022/12/02 11:36:25;;;;;;;37.33;16.25;;;6.50;78.80;;;;;;4919834;29;20036;-81
2022/12/02 11:38:50;;;;;;;31.20;14.80;;;6.60;78.80;;;;;;4921477;29;20036;-83
2022/12/02 11:41:27;;;;;;;30.60;14.88;;;6.60;78.60;;;;;;4937040;29;20768;-84
2022/12/02 11:43:59;;;;;;;28.77;14.00;;;6.70;78.70;;;;;;4940123;29;20028;-84
2022/12/02 11:46:49;;;;;;;31.60;14.40;;;6.70;78.70;;;;;;4941848;29;20078;-83
2022/12/02 11:49:35;;;;;;;28.75;16.02;;;6.70;78.60;;;;;;4941400;29;20032;-83
2022/12/02 11:52:08;;;;;;;33.67;17.00;;;6.70;78.60;;;;;;4941181;29;20020;-83
2022/12/02 11:54:38;;;;;;;37.80;17.65;;;6.80;78.70;;;;;;4930051;29;20024;-84
2022/12/02 11:57:05;;;;;;;40.20;15.68;;;6.80;78.50;;;;;;4934026;29;20023;-84
2022/12/02 11:59:34;;;;;;;32.22;15.82;;;6.90;78.30;;;;;;4935334;29;20035;-84
2022/12/02 12:02:14;;;;;;;29.88;15.88;;;6.90;78.20;;;;;;4941128;29;20391;-83
2022/12/02 12:04:41;;;;;;;38.95;15.98;;;6.90;78.20;;;;;;4934131;29;20024;-84
2022/12/02 12:07:07;;;;;;;33.60;15.75;;;7.00;78.50;;;;;;4940741;29;20027;-84
2022/12/02 12:09:33;;;;;;;33.20;15.38;;;7.00;78.40;;;;;;4940771;29;20543;-83
2022/12/02 12:12:13;;;;;;;30.15;13.32;;;7.00;78.40;;;;;;4934993;29;20028;-83
2022/12/02 12:15:04;;;;;;;29.38;15.38;;;7.00;78.20;;;;;;4932705;29;20032;-83
2022/12/02 12:17:37;;;;;;;28.98;13.35;;;7.10;77.80;;;;;;4925009;29;20062;-82
2022/12/02 12:20:12;;;;;;;27.75;14.20;;;7.00;77.30;;;;;;4928284;29;20046;-82
2022/12/02 12:22:38;;;;;;;29.70;15.23;;;7.10;77.30;;;;;;4934443;29;20035;-82
2022/12/02 12:25:31;;;;;;;30.20;14.88;;;7.10;76.70;;;;;;4906703;29;20039;-83
2022/12/02 12:27:57;;;;;;;26.73;14.13;;;7.10;76.80;;;;;;4928688;29;20058;-83
2022/12/02 12:30:23;;;;;;;33.60;16.00;;;7.20;76.90;;;;;;4914888;29;20032;-83
2022/12/02 12:32:48;;;;;;;30.00;14.20;;;7.20;76.80;;;;;;4939904;29;20036;-83
2022/12/02 12:35:14;;;;;;;36.58;16.02;;;7.20;76.50;;;;;;4934413;29;20034;-82
2022/12/02 12:37:39;;;;;;;26.75;13.35;;;7.20;76.60;;;;;;4932805;29;20114;-82
2022/12/02 12:40:06;;;;;;;28.00;14.40;;;7.20;76.40;;;;;;4939908;29;20032;-82
2022/12/02 12:42:31;;;;;;;28.80;15.05;;;7.30;76.40;;;;;;4938471;29;20035;-83
2022/12/02 12:44:57;;;;;;;32.10;14.50;;;7.20;76.10;;;;;;4939174;29;20023;-83
2022/12/02 12:47:23;;;;;;;28.50;13.05;;;7.20;76.10;;;;;;4930760;29;20091;-82
2022/12/02 12:49:48;;;;;;;32.70;13.93;;;7.20;76.20;;;;;;4931474;29;20020;-82
2022/12/02 12:52:14;;;;;;;31.27;14.05;;;7.20;76.20;;;;;;4933871;29;20056;-82
2022/12/02 12:54:40;;;;;;;24.50;12.98;;;7.20;76.30;;;;;;4930383;29;20059;-82
2022/12/02 12:57:05;;;;;;;30.63;13.80;;;7.20;75.80;;;;;;4931987;29;20036;-82
2022/12/02 12:59:31;;;;;;;32.45;14.38;;;7.30;75.80;;;;;;4930502;29;20031;-82
2022/12/02 13:01:57;;;;;;;36.15;17.45;;;7.30;75.80;;;;;;4936040;29;20012;-82
2022/12/02 13:04:23;;;;;;;35.38;15.60;;;7.30;75.50;;;;;;4916857;29;20039;-82
2022/12/02 13:06:49;;;;;;;28.60;13.23;;;7.30;75.50;;;;;;4930260;29;20020;-82
2022/12/02 13:09:15;;;;;;;25.48;12.88;;;7.30;75.90;;;;;;4931514;29;20028;-82
2022/12/02 13:11:40;;;;;;;24.48;13.43;;;7.30;76.20;;;;;;4934149;29;20063;-82
2022/12/02 13:14:06;;;;;;;28.60;13.15;;;7.40;76.30;;;;;;4931698;29;20549;-82
2022/12/02 13:16:32;;;;;;;36.30;13.13;;;7.40;76.30;;;;;;4930954;29;20093;-82
2022/12/02 13:18:58;;;;;;;29.45;14.32;;;7.40;76.40;;;;;;4932412;29;20036;-83
2022/12/02 13:21:23;;;;;;;23.40;12.82;;;7.40;76.20;;;;;;4929675;29;20024;-83
2022/12/02 13:23:49;;;;;;;27.48;13.38;;;7.30;76.40;;;;;;4934876;29;20028;-83
2022/12/02 13:26:15;;;;;;;29.60;12.50;;;7.30;76.60;;;;;;4932784;29;20024;-82
2022/12/02 13:28:40;;;;;;;25.20;11.73;;;7.30;76.40;;;;;;4929630;29;20040;-82
2022/12/02 13:31:06;;;;;;;25.83;12.23;;;7.30;76.50;;;;;;4931276;29;20047;-83
2022/12/02 13:33:32;;;;;;;23.65;12.13;;;7.40;76.30;;;;;;4932506;29;20059;-82
2022/12/02 13:35:57;;;;;;;24.77;12.23;;;7.40;76.40;;;;;;4933253;29;20087;-82
2022/12/02 13:38:23;;;;;;;27.30;11.07;;;7.30;76.50;;;;;;4934050;29;20023;-82
2022/12/02 13:40:49;;;;;;;29.20;14.13;;;7.40;76.60;;;;;;4929647;29;20032;-82
2022/12/02 13:43:14;;;;;;;28.58;12.02;;;7.40;76.70;;;;;;4913658;29;20579;-82
2022/12/02 13:45:40;;;;;;;28.45;13.73;;;7.40;76.60;;;;;;4930986;29;20416;-83
2022/12/02 13:48:06;;;;;;;29.35;12.60;;;7.40;76.40;;;;;;4929030;29;20027;-83
2022/12/02 13:50:32;;;;;;;27.38;11.30;;;7.40;76.00;;;;;;4929194;29;20024;-82
2022/12/02 13:52:58;;;;;;;27.17;12.43;;;7.40;76.10;;;;;;4932943;29;20032;-82
2022/12/02 13:55:23;;;;;;;21.48;10.50;;;7.30;76.20;;;;;;4912334;29;20016;-83
2022/12/02 13:57:49;;;;;;;26.85;10.82;;;7.30;75.80;;;;;;4930924;29;20085;-82
2022/12/02 14:00:15;;;;;;;24.45;11.52;;;7.30;75.80;;;;;;4914796;29;20551;-81
2022/12/02 14:02:41;;;;;;;24.17;11.48;;;7.30;76.00;;;;;;4931085;29;20047;-83
2022/12/02 14:05:07;;;;;;;27.67;12.32;;;7.30;76.10;;;;;;4931612;29;20015;-83
2022/12/02 14:07:33;;;;;;;27.63;11.63;;;7.30;75.80;;;;;;4929868;29;20083;-82
2022/12/02 14:09:59;;;;;;;24.67;11.65;;;7.40;76.00;;;;;;4908755;29;20036;-82
2022/12/02 14:12:24;;;;;;;28.13;12.88;;;7.40;76.00;;;;;;4935892;29;20400;-82
2022/12/02 14:14:50;;;;;;;21.67;10.90;;;7.40;75.60;;;;;;4937705;29;20047;-82
2022/12/02 14:17:16;;;;;;;32.33;15.20;;;7.40;75.70;;;;;;4936123;29;20027;-82
2022/12/02 14:19:41;;;;;;;36.38;17.13;;;7.40;75.70;;;;;;4938658;29;20035;-82
2022/12/02 14:22:07;;;;;;;29.80;14.07;;;7.40;75.90;;;;;;4926566;29;20573;-81
2022/12/02 14:24:32;;;;;;;23.83;11.52;;;7.40;76.00;;;;;;4926671;29;20154;-82
2022/12/02 14:26:58;;;;;;;28.70;11.82;;;7.50;76.00;;;;;;4936380;29;20506;-84
2022/12/02 14:29:24;;;;;;;27.00;11.90;;;7.40;76.00;;;;;;4935472;29;20023;-83
2022/12/02 14:31:49;;;;;;;28.58;12.20;;;7.40;76.00;;;;;;4932740;29;20065;-83
2022/12/02 14:34:15;;;;;;;26.13;11.93;;;7.40;76.30;;;;;;4935335;29;20036;-83
2022/12/02 14:36:42;;;;;;;22.45;12.18;;;7.50;76.40;;;;;;4921099;29;20044;-83
2022/12/02 14:39:08;;;;;;;26.45;12.20;;;7.40;76.40;;;;;;4937333;29;20038;-84
2022/12/02 14:41:33;;;;;;;24.30;11.77;;;7.40;76.40;;;;;;4935835;29;20040;-81
2022/12/02 14:43:59;;;;;;;29.63;12.70;;;7.50;76.60;;;;;;4937580;29;20039;-82
2022/12/02 14:46:25;;;;;;;28.70;12.32;;;7.50;76.60;;;;;;4938246;29;20027;-81
2022/12/02 14:48:51;;;;;;;31.15;14.10;;;7.40;76.60;;;;;;4938519;29;20838;-81
2022/12/02 14:51:16;;;;;;;28.30;12.10;;;7.40;76.70;;;;;;4938871;29;20042;-82
2022/12/02 14:53:42;;;;;;;30.13;13.73;;;7.40;76.80;;;;;;4938464;29;20424;-82
2022/12/02 14:56:08;;;;;;;29.23;13.02;;;7.40;76.80;;;;;;4922209;29;20040;-83
2022/12/02 14:58:33;;;;;;;29.10;13.27;;;7.40;76.80;;;;;;4952969;29;20090;-82
2022/12/02 15:00:59;;;;;;;29.67;12.70;;;7.30;76.80;;;;;;4945922;29;20038;-82
2022/12/02 15:03:24;;;;;;;23.40;12.45;;;7.30;77.00;;;;;;4937329;29;20024;-82
2022/12/02 15:05:50;;;;;;;25.90;14.35;;;7.30;77.10;;;;;;4934028;29;20070;-82
2022/12/02 15:08:16;;;;;;;28.08;12.57;;;7.30;77.10;;;;;;4916268;29;20123;-82
2022/12/02 15:10:41;;;;;;;25.08;12.60;;;7.20;77.20;;;;;;4934190;29;20028;-82
2022/12/02 15:13:07;;;;;;;27.20;12.80;;;7.20;77.20;;;;;;4938022;29;20065;-82
2022/12/02 15:15:33;;;;;;;24.17;11.88;;;7.20;77.40;;;;;;4935836;29;20110;-81
2022/12/02 15:17:58;;;;;;;27.98;14.32;;;7.20;77.20;;;;;;4938170;29;20023;-82
2022/12/02 15:20:25;;;;;;;24.13;13.15;;;7.10;77.30;;;;;;4938297;29;20031;-80
2022/12/02 15:22:51;;;;;;;29.00;12.32;;;7.00;77.40;;;;;;4930055;29;20031;-80
2022/12/02 15:25:17;;;;;;;29.60;14.15;;;7.10;77.40;;;;;;4935079;29;20031;-80
2022/12/02 15:27:43;;;;;;;27.80;12.23;;;7.10;77.40;;;;;;4937519;29;20028;-79
2022/12/02 15:30:09;;;;;;;30.58;13.52;;;7.10;77.30;;;;;;4919759;29;20094;-79
2022/12/02 15:32:35;;;;;;;26.48;13.00;;;7.00;77.20;;;;;;4938241;29;20067;-80
2022/12/02 15:35:02;;;;;;;32.13;13.95;;;7.00;77.10;;;;;;4921971;29;20514;-80
2022/12/02 15:37:28;;;;;;;25.33;12.57;;;7.00;77.00;;;;;;4937631;29;20024;-79
2022/12/02 15:39:53;;;;;;;32.70;14.02;;;6.90;76.90;;;;;;4937441;29;20403;-80
2022/12/02 15:42:19;;;;;;;31.52;12.55;;;6.90;77.10;;;;;;4937839;29;20036;-80
2022/12/02 15:44:45;;;;;;;40.13;16.67;;;6.90;77.20;;;;;;4936506;29;20020;-80
2022/12/02 15:47:11;;;;;;;34.42;15.32;;;6.90;77.30;;;;;;4920487;29;20163;-80
2022/12/02 15:49:36;;;;;;;28.23;14.07;;;6.90;77.30;;;;;;4937864;29;20024;-80
2022/12/02 15:52:02;;;;;;;27.55;13.23;;;6.80;77.10;;;;;;4937926;29;20063;-79
2022/12/02 15:54:30;;;;;;;30.80;15.18;;;6.80;77.30;;;;;;4937472;29;20023;-80
2022/12/02 15:56:57;;;;;;;32.85;14.90;;;6.80;77.20;;;;;;4937594;29;20799;-80
2022/12/02 15:59:24;;;;;;;31.67;15.25;;;6.80;77.30;;;;;;4936057;29;20036;-80
2022/12/02 16:01:49;;;;;;;28.15;13.50;;;6.80;77.00;;;;;;4937640;29;20067;-80
2022/12/02 16:04:15;;;;;;;28.25;14.88;;;6.80;77.00;;;;;;4921864;29;20016;-80
2022/12/02 16:06:40;;;;;;;32.13;14.25;;;6.70;77.10;;;;;;4937331;29;20514;-81
2022/12/02 16:09:06;;;;;;;31.20;15.02;;;6.70;77.40;;;;;;4933618;29;20032;-80
2022/12/02 16:11:32;;;;;;;26.58;13.65;;;6.70;77.30;;;;;;4907813;29;20119;-79
2022/12/02 16:13:57;;;;;;;25.75;13.60;;;6.70;77.30;;;;;;4928506;29;20036;-79
2022/12/02 16:16:23;;;;;;;29.58;13.18;;;6.70;77.40;;;;;;4916178;29;20044;-81
2022/12/02 16:18:49;;;;;;;30.52;14.13;;;6.70;77.30;;;;;;4929667;29;20032;-81
2022/12/02 16:21:16;;;;;;;30.67;15.48;;;6.70;77.30;;;;;;4934295;29;20036;-81
2022/12/02 16:23:42;;;;;;;28.98;15.85;;;6.70;77.30;;;;;;4938677;29;20095;-81
2022/12/02 16:26:07;;;;;;;27.05;14.27;;;6.60;77.20;;;;;;4940197;29;20036;-82
2022/12/02 16:28:33;;;;;;;30.02;15.25;;;6.50;77.20;;;;;;4923258;29;20385;-82
2022/12/02 16:30:59;;;;;;;31.20;16.23;;;6.50;77.20;;;;;;4917136;29;20051;-85
2022/12/02 16:33:24;;;;;;;32.10;14.45;;;6.50;77.40;;;;;;4873662;29;20416;-82
2022/12/02 16:35:50;;;;;;;29.13;14.02;;;6.50;77.30;;;;;;4937463;29;20059;-83
2022/12/02 16:38:16;;;;;;;32.10;15.00;;;6.40;77.40;;;;;;4936170;29;20116;-84
2022/12/02 16:40:41;;;;;;;34.38;17.38;;;6.40;77.50;;;;;;4932667;29;20112;-83
2022/12/02 16:43:07;;;;;;;30.95;16.55;;;6.40;77.60;;;;;;4916573;29;20036;-83
2022/12/02 16:45:33;;;;;;;38.92;16.73;;;6.30;77.60;;;;;;4913198;29;20026;-84
2022/12/02 16:47:58;;;;;;;30.80;17.13;;;6.40;77.60;;;;;;4898381;29;20024;-83
2022/12/02 16:50:24;;;;;;;34.92;18.15;;;6.40;77.70;;;;;;4919567;29;20507;-83
2022/12/02 16:52:50;;;;;;;40.20;19.55;;;6.40;77.60;;;;;;4918486;29;20027;-82
2022/12/02 16:55:16;;;;;;;44.42;25.17;;;6.40;77.60;;;;;;4917006;29;20070;-80
2022/12/02 16:57:41;;;;;;;35.03;16.75;;;6.40;77.60;;;;;;4936476;29;20543;-82
2022/12/02 17:00:08;;;;;;;39.05;17.83;;;6.40;77.50;;;;;;4933928;29;20062;-81
2022/12/02 17:02:34;;;;;;;29.05;13.90;;;6.30;77.60;;;;;;4912512;29;20028;-85
2022/12/02 17:05:00;;;;;;;26.52;14.77;;;6.30;77.60;;;;;;4928092;29;20056;-82
2022/12/02 17:07:26;;;;;;;28.13;15.18;;;6.20;77.80;;;;;;4929867;29;20033;-82
2022/12/02 17:09:51;;;;;;;35.00;16.00;;;6.20;77.80;;;;;;4922710;29;20039;-79
2022/12/02 17:12:17;;;;;;;36.00;15.30;;;6.20;77.90;;;;;;4933492;29;20767;-79
2022/12/02 17:14:43;;;;;;;42.35;21.90;;;6.20;77.90;;;;;;4939733;29;20090;-81
2022/12/02 17:17:08;;;;;;;50.13;22.25;;;6.10;77.90;;;;;;4932159;29;20031;-81
2022/12/02 17:19:34;;;;;;;37.28;19.05;;;6.10;78.00;;;;;;4929501;29;20035;-83
2022/12/02 17:22:00;;;;;;;27.52;14.25;;;6.00;78.10;;;;;;4941657;29;20091;-83
2022/12/02 17:24:25;;;;;;;26.15;12.70;;;6.00;78.20;;;;;;4941102;29;20436;-82
2022/12/02 17:26:51;;;;;;;23.80;12.13;;;5.90;78.20;;;;;;4939222;29;20024;-80
2022/12/02 17:29:17;;;;;;;30.65;13.48;;;5.90;78.40;;;;;;4937149;29;20067;-78
2022/12/02 17:31:42;;;;;;;35.45;15.43;;;5.90;78.50;;;;;;4935683;29;20052;-80
2022/12/02 17:34:12;;;;;;;34.38;18.08;;;6.00;78.60;;;;;;4938604;29;20044;-80
2022/12/02 17:36:39;;;;;;;47.15;19.48;;;6.00;78.60;;;;;;4928627;29;20036;-80
2022/12/02 17:39:04;;;;;;;33.30;18.35;;;6.00;78.70;;;;;;4921389;29;20499;-80
2022/12/02 17:41:31;;;;;;;22.17;14.15;;;6.10;78.80;;;;;;4920998;29;20028;-80
2022/12/02 17:43:57;;;;;;;28.48;16.83;;;6.10;78.70;;;;;;4921365;29;20032;-80
2022/12/02 17:46:22;;;;;;;27.15;14.23;;;6.10;78.70;;;;;;4940281;29;20616;-81
2022/12/02 17:48:48;;;;;;;26.13;13.50;;;6.20;78.70;;;;;;4938157;29;20119;-80
2022/12/02 17:51:15;;;;;;;28.88;13.02;;;6.10;78.60;;;;;;4904353;29;20036;-80
2022/12/02 17:53:41;;;;;;;25.52;13.20;;;6.10;78.50;;;;;;4922283;29;20032;-81
2022/12/02 17:56:07;;;;;;;36.60;15.13;;;6.20;78.70;;;;;;4922270;29;20551;-81
2022/12/02 17:58:33;;;;;;;37.60;17.23;;;6.20;78.60;;;;;;4908355;29;20032;-80
2022/12/02 18:00:59;;;;;;;24.40;14.65;;;6.10;78.80;;;;;;4937061;29;20058;-78
2022/12/02 18:03:24;;;;;;;32.35;15.23;;;6.20;78.80;;;;;;4934461;29;20028;-78
2022/12/02 18:05:50;;;;;;;27.73;14.05;;;6.20;78.90;;;;;;4939251;29;20480;-83
2022/12/02 18:08:19;;;;;;;31.40;14.50;;;6.20;78.90;;;;;;4939333;29;20831;-79
2022/12/02 18:10:45;;;;;;;30.45;15.05;;;6.20;78.90;;;;;;4940260;29;20032;-84
2022/12/02 18:13:11;;;;;;;28.38;14.48;;;6.20;78.90;;;;;;4922704;29;20039;-81
2022/12/02 18:15:37;;;;;;;26.92;14.63;;;6.20;79.00;;;;;;4936478;29;20071;-81